MET'MAP v2.0
soon released !

Expected late october,
this new version will be
more efficient, smarter,
and hosted on a brand new
server x3 powerfull...
...and still free !


Not compatible ?
Try the mobile version !

LOG IN : | Subscribe | Disclaimer | Who is Orbifly ? |
ICAO code :

TAF - LYNI Nis Constantine - 31 May 2020 03:31 UTC - Data Source NOAA   


- Airport Elevation : 648 ft
- IATA code : INI
- No reported NOTAMs.


LYNI - Nis Constantine

Latest METAR recorded : 2015/08/11 08:00 LYNI 110800Z VRB01KT CAVOK 25/12 Q1014 NOSIG
TAF TAF LYNI
Valid from the 31 at 00:00 until the 01 at 00:00 UTC


302300Z 3100/3124 30004KT 9999 SCT040 TX19/3113Z TN09/3103Z
TEMPO 3102/3106 1500 BR BKN005

Source NOAA


MET'MAP, your aeronautical weather chart ! - Copyright ORBIFLY December 2007

Programming & Development : Alexandra Zaïnal
Co-Developer : Marc-Olivier Méhu
Technical & hardware support : Manuel Goepfert
Concept & Financing : Baudouin d'Aumeries